ROTAER D-AMDT 23/20 Ver Mudanças

AERÓDROMO NACIONAL DE AVIAÇÃO ( SBNV ) / GOIÂNIA, GO 16 37 32S/049 20 58W
AD PUB Governo do Estado 10NE UTC-3 HJ 831 (2726)

14 - ( 1100x20 ASPH 5700kg/0.50MPa ) - 32

SBBS (CINDACTA 1)
COM -
AFIS ESCOLINHA 131.05 [2]
CMB- PF
MET -

[1] [2] CMA 1,2,3,4

AIS - [1] [2] [3]

RMK -

DADOS SOBRE OS PÁTIOS, PISTAS DE TAXI E PONTOS DE VERIFICAÇÃO
  1. PRB OPS LDG E TKOF ACFT fora dos horários de funcionamento do AFIS
REGULAMENTOS PARA TRÁFEGO LOCAL
  1. OBS ACFT e ultraleves em FLT de instrução próximo ao AD
PROCEDIMENTOS DE VOO
  1. OBS VAC SBGO para entrada ou saída do circuito de TFC
INFORMAÇÃO ADICIONAL
  1. OBS A PRESENÇA DE PÁSSAROS (URUBUS) NO SETOR “ SW” DO AD DEVIDO A EXISTÊNCIA DE ATERRO SANITÁRIO NAS PROXIMIDADES DO CIRCUITO DE TRÁFEGO DA RWY 14/32
COMPL -
  • [1] AUTOATENDIMENTO
  • [2] (DLY 1000-2100)
  • [3] Para informações adicionais, consultar o Centro de Informações Aeronáuticas de Brasília Tel PLN (61) 3365-1896 e (61) 3365-1855.
TEMP (0)

Suplementos AIP (0)

NOTAM (0)

Nascer/Por do Sol

09:07

21:13


METAR

211400Z 21009KT 5000 HZ NSC 27/14 Q1018=

TAF


Cartas (0)


Rotas Preferenciais (0)